Time;durP1;ratioP1;P1;durP2;ratioP2;P2;SDS_P1;SDS_P2;PMS_P1;PMS_P2;Temp;Humidity;BMP_temperature;BMP_pressure;BME280_temperature;BME280_humidity;BME280_pressure;Samples;Min_cycle;Max_cycle;Signal;HPM_P1;HPM_P2
2022/10/31 00:01:16;;;;;;;6.30;2.90;;;;;;;18.68;70.47;101459.00;4991795;28;20517;-66
2022/10/31 00:03:43;;;;;;;5.82;2.63;;;;;;;18.56;70.67;101451.47;4991559;28;20046;-66
2022/10/31 00:06:10;;;;;;;7.32;2.78;;;;;;;18.57;70.63;101461.44;4996813;28;20053;-66
2022/10/31 00:08:37;;;;;;;8.95;3.10;;;;;;;18.71;70.17;101461.09;4979889;28;20125;-67
2022/10/31 00:11:08;;;;;;;7.75;2.72;;;;;;;18.71;69.98;101464.69;4997944;28;20053;-67
2022/10/31 00:13:36;;;;;;;7.60;3.00;;;;;;;18.64;70.39;101469.22;4992269;28;20047;-67
2022/10/31 00:16:03;;;;;;;6.18;2.80;;;;;;;18.37;71.18;101462.34;4993825;28;20050;-67
2022/10/31 00:18:31;;;;;;;6.80;2.97;;;;;;;18.21;71.39;101457.78;4964726;28;20053;-68
2022/10/31 00:21:02;;;;;;;6.35;3.08;;;;;;;18.11;71.98;101452.66;4997788;28;20050;-67
2022/10/31 00:23:30;;;;;;;12.23;3.35;;;;;;;18.21;72.04;101455.00;4996136;28;20486;-67
2022/10/31 00:26:03;;;;;;;7.07;3.05;;;;;;;18.32;72.24;101453.41;4997266;28;20037;-67
2022/10/31 00:28:31;;;;;;;6.28;3.22;;;;;;;18.29;71.75;101448.53;4989023;28;20058;-68
2022/10/31 00:31:04;;;;;;;6.97;2.80;;;;;;;18.43;71.77;101449.03;4987689;28;20050;-67
2022/10/31 00:33:34;;;;;;;8.95;3.08;;;;;;;18.46;71.75;101456.69;4970588;28;20058;-67
2022/10/31 00:36:03;;;;;;;8.95;3.15;;;;;;;18.45;71.54;101455.88;4969996;28;20053;-66
2022/10/31 00:38:31;;;;;;;6.32;3.13;;;;;;;18.43;71.14;101460.19;4996712;28;20050;-67
2022/10/31 00:40:58;;;;;;;10.65;3.42;;;;;;;18.35;71.82;101455.50;4990916;28;20061;-66
2022/10/31 00:43:25;;;;;;;7.45;3.22;;;;;;;18.42;72.09;101456.56;4991889;28;20082;-66
2022/10/31 00:45:52;;;;;;;7.80;3.28;;;;;;;18.31;72.39;101460.13;4990605;28;20053;-66
2022/10/31 00:48:20;;;;;;;6.43;3.00;;;;;;;18.28;72.39;101455.25;4991366;28;20402;-66
2022/10/31 00:50:48;;;;;;;8.63;3.80;;;;;;;18.24;72.41;101452.34;4973142;28;20057;-66
2022/10/31 00:53:15;;;;;;;6.57;2.80;;;;;;;18.18;72.88;101445.38;5015513;28;20085;-66
2022/10/31 00:55:43;;;;;;;8.70;3.15;;;;;;;18.23;72.40;101450.72;4999429;28;20053;-67
2022/10/31 00:58:10;;;;;;;6.97;3.40;;;;;;;18.22;72.27;101454.66;5009514;28;20054;-67
2022/10/31 01:00:37;;;;;;;6.32;3.22;;;;;;;18.18;72.68;101458.50;4995365;28;20042;-67
2022/10/31 01:03:05;;;;;;;9.63;3.67;;;;;;;17.97;73.50;101451.00;5016096;28;20057;-67
2022/10/31 01:05:32;;;;;;;7.95;3.30;;;;;;;18.03;73.46;101446.03;5014258;28;20512;-67
2022/10/31 01:08:01;;;;;;;9.05;3.85;;;;;;;18.03;73.11;101445.25;4999440;28;20521;-66
2022/10/31 01:10:29;;;;;;;6.45;3.13;;;;;;;18.17;72.83;101437.31;4993722;28;20058;-66
2022/10/31 01:12:56;;;;;;;6.78;3.00;;;;;;;18.16;72.45;101427.34;5017072;28;20048;-66
2022/10/31 01:15:24;;;;;;;8.85;3.13;;;;;;;18.21;72.49;101419.56;4998773;28;20069;-66
2022/10/31 01:17:51;;;;;;;7.75;3.05;;;;;;;18.14;72.94;101418.50;5016757;28;20513;-65
2022/10/31 01:20:19;;;;;;;6.28;3.08;;;;;;;18.22;72.31;101410.03;4996144;28;20409;-70
2022/10/31 01:22:46;;;;;;;5.82;3.05;;;;;;;18.20;72.50;101409.56;5014947;28;20065;-68
2022/10/31 01:25:13;;;;;;;8.35;3.10;;;;;;;18.20;72.59;101405.97;5016353;28;20046;-67
2022/10/31 01:27:41;;;;;;;5.80;2.95;;;;;;;18.16;72.38;101405.88;5016346;28;20050;-66
2022/10/31 01:30:08;;;;;;;5.30;2.80;;;;;;;18.30;72.25;101400.75;4994966;28;20490;-66
2022/10/31 01:32:36;;;;;;;6.88;3.08;;;;;;;18.29;72.03;101403.91;5016123;28;20046;-66
2022/10/31 01:35:03;;;;;;;6.78;3.10;;;;;;;18.36;71.38;101402.13;5016003;28;20054;-66
2022/10/31 01:37:31;;;;;;;8.00;2.88;;;;;;;18.40;71.18;101400.31;5013539;28;20053;-67
2022/10/31 01:39:58;;;;;;;6.13;2.85;;;;;;;18.30;70.78;101402.72;5001722;28;20437;-66
2022/10/31 01:42:26;;;;;;;5.82;2.78;;;;;;;18.25;71.80;101403.78;5015836;28;20050;-67
2022/10/31 01:44:56;;;;;;;7.60;2.50;;;;;;;18.08;71.98;101403.19;5002874;28;20073;-66
2022/10/31 01:47:33;;;;;;;6.55;2.72;;;;;;;18.23;71.96;101399.69;5015582;28;20054;-67
2022/10/31 01:50:03;;;;;;;6.22;2.83;;;;;;;18.16;72.00;101386.34;4998718;28;20049;-67
2022/10/31 01:52:33;;;;;;;6.55;2.63;;;;;;;18.31;71.64;101387.59;5013691;28;20497;-67
2022/10/31 01:55:07;;;;;;;7.10;3.20;;;;;;;18.33;71.84;101385.28;4999071;28;20050;-66
2022/10/31 01:57:35;;;;;;;6.63;2.90;;;;;;;18.26;71.50;101383.09;5014820;28;20060;-67
2022/10/31 02:00:08;;;;;;;5.43;2.90;;;;;;;18.39;71.17;101386.69;5013730;28;20038;-67
2022/10/31 02:02:42;;;;;;;7.07;3.40;;;;;;;18.08;71.64;101397.63;5015351;28;20049;-66
2022/10/31 02:05:12;;;;;;;6.53;3.03;;;;;;;18.12;72.22;101388.19;5004171;28;20050;-67
2022/10/31 02:07:45;;;;;;;6.32;3.28;;;;;;;18.25;71.89;101386.22;4997037;28;20056;-66
2022/10/31 02:10:12;;;;;;;8.27;3.00;;;;;;;18.14;72.32;101385.06;5001143;28;20046;-66
2022/10/31 02:12:41;;;;;;;4.85;2.70;;;;;;;18.11;72.64;101382.97;4998221;28;20050;-66
2022/10/31 02:15:08;;;;;;;6.95;2.78;;;;;;;18.09;72.45;101385.28;5007749;28;20065;-66
2022/10/31 02:17:36;;;;;;;6.80;2.80;;;;;;;18.19;72.08;101379.25;5009453;28;20064;-65
2022/10/31 02:20:12;;;;;;;6.53;3.00;;;;;;;18.25;72.03;101363.91;4997797;28;20501;-66
2022/10/31 02:22:53;;;;;;;5.00;2.88;;;;;;;18.33;71.86;101360.19;5015704;28;20049;-67
2022/10/31 02:25:30;;;;;;;8.45;2.90;;;;;;;18.28;71.71;101357.63;5000649;28;20500;-66
2022/10/31 02:28:24;;;;;;;6.95;2.65;;;;;;;18.25;72.52;101356.38;5014421;28;20061;-66
2022/10/31 02:31:10;;;;;;;9.85;2.83;;;;;;;18.21;72.23;101365.75;4993422;28;20053;-69
2022/10/31 02:33:43;;;;;;;6.07;2.83;;;;;;;18.34;71.81;101359.03;5000363;28;20058;-66
2022/10/31 02:36:22;;;;;;;6.15;3.00;;;;;;;18.19;72.46;101362.50;5013671;28;20050;-66
2022/10/31 02:39:21;;;;;;;4.93;2.88;;;;;;;18.15;72.62;101364.38;4994829;28;20054;-66
2022/10/31 02:42:07;;;;;;;7.07;3.15;;;;;;;18.25;72.52;101347.19;5010940;28;20046;-66
2022/10/31 02:44:48;;;;;;;8.80;3.00;;;;;;;18.10;72.37;101348.69;5013343;28;20061;-66
2022/10/31 02:47:17;;;;;;;5.78;2.90;;;;;;;17.84;73.46;101346.25;4994962;28;20054;-66
2022/10/31 02:49:57;;;;;;;5.22;2.72;;;;;;;18.11;72.87;101346.72;4997735;28;20053;-67
2022/10/31 02:52:26;;;;;;;;;;;;;;;18.06;72.78;101344.16;4981395;28;20054;-66
2022/10/31 02:54:58;;;;;;;7.00;3.13;;;;;;;18.24;72.46;101335.22;5014099;28;20380;-66
2022/10/31 02:57:29;;;;;;;6.30;2.83;;;;;;;18.35;71.74;101333.56;5013692;28;20049;-67
2022/10/31 03:00:01;;;;;;;7.30;2.90;;;;;;;18.27;71.52;101344.88;5011856;28;20053;-66
2022/10/31 03:02:36;;;;;;;7.10;3.28;;;;;;;18.25;71.59;101333.25;4991849;28;20053;-66
2022/10/31 03:05:22;;;;;;;7.03;2.95;;;;;;;18.13;72.37;101331.28;4981167;28;20058;-67
2022/10/31 03:08:13;;;;;;;6.55;3.05;;;;;;;18.25;71.90;101333.25;4994765;28;20528;-68
2022/10/31 03:10:47;;;;;;;6.13;3.00;;;;;;;18.23;72.13;101333.59;4996706;28;20406;-66
2022/10/31 03:13:23;;;;;;;6.78;3.13;;;;;;;18.31;71.79;101334.59;5013630;28;20045;-66
2022/10/31 03:15:57;;;;;;;;;;;;;;;18.11;72.20;101330.81;5016881;28;20042;-66
2022/10/31 03:18:33;;;;;;;7.03;3.00;;;;;;;18.27;72.21;101331.72;5017438;28;19947;-67
2022/10/31 03:21:12;;;;;;;7.05;3.10;;;;;;;18.19;72.36;101324.28;5016410;28;20397;-67
2022/10/31 03:23:40;;;;;;;6.70;3.30;;;;;;;18.32;72.09;101322.31;5014715;28;20054;-66
2022/10/31 03:26:11;;;;;;;8.40;3.15;;;;;;;18.32;72.28;101320.34;4994254;28;20049;-66
2022/10/31 03:29:05;;;;;;;5.90;3.10;;;;;;;18.26;71.67;101320.91;4997391;28;20089;-66
2022/10/31 03:31:45;;;;;;;5.95;3.15;;;;;;;18.27;72.20;101311.41;5011014;28;20304;-66
2022/10/31 03:34:14;;;;;;;8.10;3.80;;;;;;;18.34;71.88;101318.00;4998145;28;20051;-66
2022/10/31 03:36:43;;;;;;;9.55;3.80;;;;;;;18.39;72.66;101311.38;5013840;28;20046;-67
2022/10/31 03:39:14;;;;;;;7.03;3.60;;;;;;;18.45;72.08;101301.63;5017596;28;20049;-66
2022/10/31 03:41:45;;;;;;;8.93;3.95;;;;;;;18.28;72.87;101301.84;4997438;28;20057;-66
2022/10/31 03:44:19;;;;;;;8.90;4.00;;;;;;;18.50;72.62;101301.38;5010081;28;20061;-66
2022/10/31 03:46:54;;;;;;;7.20;3.80;;;;;;;18.49;72.30;101297.78;4996113;28;20054;-67
2022/10/31 03:49:21;;;;;;;8.07;4.43;;;;;;;18.37;72.71;101299.75;4997117;28;20636;-66
2022/10/31 03:51:56;;;;;;;9.88;4.32;;;;;;;18.46;72.84;101289.31;4999879;28;20050;-66
2022/10/31 03:54:42;;;;;;;7.63;4.05;;;;;;;18.44;73.14;101286.06;5004157;28;20058;-67
2022/10/31 03:57:32;;;;;;;8.43;4.53;;;;;;;18.39;73.15;101286.28;4999787;28;20065;-67
2022/10/31 04:00:07;;;;;;;9.80;4.22;;;;;;;18.21;73.77;101288.50;5000885;28;20049;-67
2022/10/31 04:03:13;;;;;;;8.18;4.45;;;;;;;18.25;74.11;101286.66;5005361;28;20052;-67
2022/10/31 04:05:44;;;;;;;7.32;4.22;;;;;;;18.20;74.00;101280.50;5007310;28;20057;-66
2022/10/31 04:08:15;;;;;;;8.75;5.47;;;;;;;18.16;74.41;101279.56;5015991;28;20046;-66
2022/10/31 04:10:43;;;;;;;;;;;;;;;18.16;74.00;101274.00;5000547;28;20050;-65
2022/10/31 04:13:14;;;;;;;12.30;4.50;;;;;;;18.53;73.30;101275.56;5000247;28;19921;-66
2022/10/31 04:15:50;;;;;;;8.15;4.45;;;;;;;18.54;72.75;101282.75;4984648;28;20428;-66
2022/10/31 04:18:17;;;;;;;8.70;4.47;;;;;;;18.49;72.54;101274.66;5000489;28;20073;-66
2022/10/31 04:20:48;;;;;;;10.50;5.03;;;;;;;18.37;72.94;101274.66;4999890;28;20056;-67
2022/10/31 04:23:22;;;;;;;9.05;4.78;;;;;;;18.21;73.82;101279.31;5015983;28;20521;-66
2022/10/31 04:25:50;;;;;;;8.02;4.43;;;;;;;18.36;73.75;101271.03;4982858;28;20050;-66
2022/10/31 04:28:18;;;;;;;9.27;4.78;;;;;;;18.30;73.46;101278.03;5006371;28;20074;-63
2022/10/31 04:30:51;;;;;;;8.48;4.38;;;;;;;18.32;73.90;101272.94;5011697;28;20048;-63
2022/10/31 04:33:18;;;;;;;8.68;4.63;;;;;;;18.28;73.69;101276.75;4988769;28;20054;-63
2022/10/31 04:35:47;;;;;;;9.88;5.05;;;;;;;18.34;73.48;101276.16;5003940;28;20547;-62
2022/10/31 04:38:15;;;;;;;9.43;5.82;;;;;;;18.37;73.31;101277.44;5015088;28;20065;-62
2022/10/31 04:40:44;;;;;;;8.10;5.00;;;;;;;18.37;73.05;101267.09;5015028;28;20524;-61
2022/10/31 04:43:42;;;;;;;10.15;4.85;;;;;;;18.26;73.65;101268.75;4986509;28;20042;-62
2022/10/31 04:46:09;;;;;;;9.48;5.05;;;;;;;18.34;72.95;101256.63;5000121;28;20050;-63
2022/10/31 04:48:37;;;;;;;8.90;5.03;;;;;;;18.28;73.46;101254.44;4998698;28;20041;-62
2022/10/31 04:51:06;;;;;;;12.38;5.88;;;;;;;18.06;73.54;101260.53;5015598;28;20080;-62
2022/10/31 04:53:33;;;;;;;9.25;5.00;;;;;;;18.32;73.82;101242.25;4999557;28;20054;-63
2022/10/31 04:56:23;;;;;;;10.20;5.50;;;;;;;18.45;72.64;101238.28;5015480;28;20061;-62
2022/10/31 04:58:56;;;;;;;11.68;6.00;;;;;;;18.46;72.44;101234.31;5013687;28;20050;-62
2022/10/31 05:01:25;;;;;;;11.07;5.40;;;;;;;18.47;72.92;101235.94;4999071;28;20042;-68
2022/10/31 05:03:54;;;;;;;9.02;5.22;;;;;;;18.50;72.56;101231.63;5008336;28;20053;-66
2022/10/31 05:06:21;;;;;;;9.65;5.65;;;;;;;18.56;72.56;101225.47;5011467;28;20053;-67
2022/10/31 05:08:48;;;;;;;10.43;6.00;;;;;;;18.49;72.32;101228.03;4999045;28;20061;-66
2022/10/31 05:11:15;;;;;;;8.98;5.65;;;;;;;18.53;72.73;101230.94;5012777;28;20516;-67
2022/10/31 05:13:44;;;;;;;10.65;5.63;;;;;;;18.60;72.42;101228.34;4997717;28;20046;-66
2022/10/31 05:16:11;;;;;;;12.52;5.90;;;;;;;18.61;72.40;101228.00;5012156;28;20046;-67
2022/10/31 05:18:57;;;;;;;10.88;6.78;;;;;;;18.68;72.25;101219.81;5015810;28;20038;-67
2022/10/31 05:21:43;;;;;;;8.45;5.68;;;;;;;18.59;72.76;101215.53;4996993;28;20061;-67
2022/10/31 05:24:14;;;;;;;13.93;6.32;;;;;;;18.42;72.52;101207.47;4998412;28;20393;-67
2022/10/31 05:26:46;;;;;;;10.90;6.32;;;;;;;18.25;72.62;101196.59;4998580;28;20521;-67
2022/10/31 05:29:13;;;;;;;10.45;6.38;;;;;;;18.19;72.81;101200.78;4999066;28;20418;-67
2022/10/31 05:31:41;;;;;;;11.05;6.53;;;;;;;18.13;73.37;101186.28;5015630;28;20050;-67
2022/10/31 05:34:18;;;;;;;11.15;6.03;;;;;;;18.17;74.20;101192.78;5014422;28;20053;-67
2022/10/31 05:37:07;;;;;;;11.65;6.15;;;;;;;18.35;72.87;101187.72;4997886;28;20054;-67
2022/10/31 05:39:34;;;;;;;16.40;5.97;;;;;;;18.36;73.76;101198.53;5002385;28;20385;-66
2022/10/31 05:42:08;;;;;;;12.35;5.70;;;;;;;18.46;73.05;101209.19;4998642;28;20053;-67
2022/10/31 05:44:35;;;;;;;8.85;5.43;;;;;;;18.58;72.23;101209.19;5016152;28;20054;-66
2022/10/31 05:47:29;;;;;;;13.68;6.13;;;;;;;18.42;71.88;101213.06;4999188;28;20060;-66
2022/10/31 05:50:14;;;;;;;11.43;5.63;;;;;;;18.55;72.26;101207.06;5016350;28;20056;-66
2022/10/31 05:53:04;;;;;;;10.65;6.20;;;;;;;18.36;72.59;101206.09;5002810;28;20046;-67
2022/10/31 05:55:36;;;;;;;10.10;5.63;;;;;;;18.26;73.04;101198.19;4997722;28;20050;-66
2022/10/31 05:58:17;;;;;;;12.45;5.88;;;;;;;18.43;72.77;101192.38;4984370;28;20053;-66
2022/10/31 06:01:00;;;;;;;12.10;5.50;;;;;;;18.56;72.38;101191.16;5012858;28;20049;-67
2022/10/31 06:03:28;;;;;;;9.82;5.15;;;;;;;18.58;72.13;101181.28;5014966;28;20050;-67
2022/10/31 06:05:56;;;;;;;10.32;4.82;;;;;;;18.72;71.12;101178.06;4997747;28;20046;-65
2022/10/31 06:08:29;;;;;;;9.07;5.10;;;;;;;18.52;71.87;101179.06;5014306;28;20058;-66
2022/10/31 06:11:00;;;;;;;8.65;5.15;;;;;;;18.54;72.03;101176.75;4986456;28;20489;-66
2022/10/31 06:13:50;;;;;;;11.00;6.38;;;;;;;18.57;71.81;101170.44;5001015;28;20046;-67
2022/10/31 06:16:33;;;;;;;12.23;5.80;;;;;;;18.61;72.06;101166.59;4997957;28;20046;-67
2022/10/31 06:19:19;;;;;;;9.70;5.85;;;;;;;18.57;71.30;101165.69;4994689;28;20054;-66
2022/10/31 06:21:46;;;;;;;12.40;6.03;;;;;;;18.62;71.28;101156.25;5008704;28;20062;-67
2022/10/31 06:24:14;;;;;;;11.52;5.97;;;;;;;18.70;71.01;101164.47;5014496;28;20045;-66
2022/10/31 06:26:59;;;;;;;11.23;5.35;;;;;;;18.56;71.25;101157.69;4997225;28;20408;-66
2022/10/31 06:29:27;;;;;;;10.32;5.35;;;;;;;18.41;71.68;101158.44;5012146;28;20054;-66
2022/10/31 06:32:04;;;;;;;10.32;4.88;;;;;;;18.59;71.63;101165.31;5006499;28;20489;-66
2022/10/31 06:34:37;;;;;;;8.55;4.30;;;;;;;18.63;71.05;101160.66;4984276;28;20519;-67
2022/10/31 06:37:08;;;;;;;7.78;4.15;;;;;;;18.63;71.69;101152.28;4996865;28;20493;-66
2022/10/31 06:39:38;;;;;;;11.13;4.47;;;;;;;18.57;71.36;101151.72;4998273;28;20050;-66
2022/10/31 06:42:06;;;;;;;9.43;4.35;;;;;;;18.71;70.81;101146.53;4997649;28;20400;-66
2022/10/31 06:44:34;;;;;;;10.68;4.72;;;;;;;18.76;70.16;101146.28;4994525;28;20058;-66
2022/10/31 06:47:21;;;;;;;12.15;5.43;;;;;;;18.74;70.39;101156.19;5002660;28;20734;-67
2022/10/31 06:49:59;;;;;;;10.32;4.55;;;;;;;18.63;70.94;101147.53;4996896;28;20449;-67
2022/10/31 06:52:26;;;;;;;9.13;4.75;;;;;;;18.79;70.11;101153.13;5004333;28;20050;-66
2022/10/31 06:54:54;;;;;;;11.75;4.95;;;;;;;18.76;69.95;101153.84;4993436;28;20061;-67
2022/10/31 06:57:22;;;;;;;9.45;5.05;;;;;;;18.51;71.72;101149.56;4975580;28;20058;-66
2022/10/31 06:59:49;;;;;;;9.10;4.80;;;;;;;18.57;71.28;101146.16;4976086;28;20046;-68
2022/10/31 07:02:29;;;;;;;8.77;4.57;;;;;;;18.21;72.70;101149.06;4980827;28;20042;-67
2022/10/31 07:04:57;;;;;;;9.32;4.65;;;;;;;18.50;72.12;101145.13;4985325;28;20066;-67
2022/10/31 07:07:24;;;;;;;11.73;5.03;;;;;;;18.38;71.99;101139.59;4982258;28;20085;-64
2022/10/31 07:09:52;;;;;;;10.50;5.43;;;;;;;18.47;71.95;101137.50;4987214;28;20047;-64
2022/10/31 07:12:30;;;;;;;20.58;6.10;;;;;;;18.80;76.94;101140.78;4990481;28;20053;-64
2022/10/31 07:14:58;;;;;;;15.52;5.95;;;;;;;18.67;79.63;101145.63;4989895;28;20042;-63
2022/10/31 07:17:25;;;;;;;16.50;6.38;;;;;;;18.85;85.00;101134.94;4989824;28;20053;-63
2022/10/31 07:19:58;;;;;;;12.38;6.15;;;;;;;18.91;88.24;101147.47;4982721;28;20054;-63
2022/10/31 07:22:33;;;;;;;17.77;6.47;;;;;;;19.12;92.17;101138.84;4975149;28;20050;-62
2022/10/31 07:25:00;;;;;;;16.90;6.88;;;;;;;19.17;92.19;101132.97;4988441;28;20050;-63
2022/10/31 07:27:38;;;;;;;17.77;6.53;;;;;;;19.10;90.27;101128.03;4990167;28;20050;-63
2022/10/31 07:30:11;;;;;;;16.90;6.70;;;;;;;19.05;88.85;101126.31;4942797;28;20061;-63
2022/10/31 07:32:47;;;;;;;12.23;6.00;;;;;;;18.99;87.66;101122.16;4971914;28;20051;-64
2022/10/31 07:35:18;;;;;;;15.98;6.57;;;;;;;18.48;85.41;101122.38;4989744;28;20073;-64
2022/10/31 07:37:48;;;;;;;15.55;7.18;;;;;;;17.78;77.17;101124.69;4993227;28;20061;-66
2022/10/31 07:40:16;;;;;;;12.45;6.85;;;;;;;17.76;76.65;101138.19;4979554;28;20060;-66
2022/10/31 07:42:45;;;;;;;13.25;7.00;;;;;;;17.59;76.16;101140.41;4975774;28;20061;-66
2022/10/31 07:45:33;;;;;;;20.13;7.10;;;;;;;17.52;77.02;101134.63;4989479;28;20054;-65
2022/10/31 07:48:26;;;;;;;15.63;7.50;;;;;;;17.51;76.42;101135.75;4983958;28;20053;-66
2022/10/31 07:51:11;;;;;;;14.85;7.25;;;;;;;17.40;76.16;101140.97;4992570;28;20057;-67
2022/10/31 07:54:01;;;;;;;16.75;7.50;;;;;;;17.40;76.46;101137.38;4980379;28;20051;-65
2022/10/31 07:56:31;;;;;;;15.10;7.78;;;;;;;17.12;78.01;101134.44;4992692;28;20070;-64
2022/10/31 07:58:59;;;;;;;15.32;7.55;;;;;;;17.52;75.91;101129.84;4976529;28;20405;-64
2022/10/31 08:01:26;;;;;;;17.77;8.07;;;;;;;17.40;76.46;101138.16;4992244;28;20062;-66
2022/10/31 08:04:16;;;;;;;14.95;7.70;;;;;;;17.29;77.09;101134.25;4981338;28;20066;-64
2022/10/31 08:07:02;;;;;;;16.40;7.65;;;;;;;17.29;79.81;101131.47;4992113;28;20071;-64
2022/10/31 08:09:34;;;;;;;19.20;8.93;;;;;;;17.40;78.25;101135.38;4960943;28;20584;-65
2022/10/31 08:12:07;;;;;;;17.45;8.85;;;;;;;17.51;77.22;101130.19;4994485;28;20558;-65
2022/10/31 08:14:35;;;;;;;22.48;9.52;;;;;;;17.62;75.93;101132.16;4992659;28;20049;-65
2022/10/31 08:17:02;;;;;;;19.98;8.45;;;;;;;17.60;78.07;101130.88;4992720;28;20490;-66
2022/10/31 08:19:39;;;;;;;18.88;8.25;;;;;;;17.78;78.06;101133.03;4967765;28;20050;-64
2022/10/31 08:22:09;;;;;;;17.50;8.63;;;;;;;17.77;77.64;101125.03;4995128;28;20493;-64
2022/10/31 08:24:36;;;;;;;22.27;9.98;;;;;;;17.88;76.46;101121.44;4994732;28;20049;-65
2022/10/31 08:27:09;;;;;;;19.67;9.43;;;;;;;17.98;76.28;101114.53;4989040;28;20050;-64
2022/10/31 08:29:38;;;;;;;21.05;11.30;;;;;;;18.09;76.35;101106.47;4993290;28;20065;-64
2022/10/31 08:32:06;;;;;;;22.08;10.48;;;;;;;17.93;76.99;101107.25;4980566;28;20442;-65
2022/10/31 08:35:06;;;;;;;25.10;11.40;;;;;;;18.22;75.48;101086.56;4975748;28;20054;-64
2022/10/31 08:38:12;;;;;;;22.73;10.20;;;;;;;18.04;76.56;101090.00;4955943;28;20399;-64
2022/10/31 08:40:41;;;;;;;22.15;9.73;;;;;;;18.41;75.51;101086.72;4951814;28;20066;-66
2022/10/31 08:43:13;;;;;;;28.50;12.25;;;;;;;18.16;74.86;101074.06;4976426;28;20560;-66
2022/10/31 08:45:42;;;;;;;28.50;13.43;;;;;;;18.28;75.04;101079.56;4983327;28;20055;-64
2022/10/31 08:48:16;;;;;;;28.30;12.38;;;;;;;18.16;75.17;101076.03;4964436;28;20058;-65
2022/10/31 08:50:45;;;;;;;27.20;12.23;;;;;;;18.37;74.62;101079.41;4990935;28;20050;-65
2022/10/31 08:53:17;;;;;;;22.15;12.15;;;;;;;18.34;74.43;101072.53;5008212;28;20054;-65
2022/10/31 08:55:49;;;;;;;28.10;12.07;;;;;;;18.26;75.50;101072.72;5006021;28;20049;-65
2022/10/31 08:58:25;;;;;;;24.38;13.10;;;;;;;18.45;75.13;101067.28;5010215;28;20050;-64
2022/10/31 09:00:59;;;;;;;24.45;12.55;;;;;;;18.25;75.40;101048.78;4991935;28;20053;-64
2022/10/31 09:03:29;;;;;;;28.40;13.10;;;;;;;18.19;75.11;101045.44;4993041;28;20055;-64
2022/10/31 09:05:59;;;;;;;26.83;12.52;;;;;;;18.43;75.89;101033.38;4993167;28;20539;-65
2022/10/31 09:08:29;;;;;;;23.38;11.10;;;;;;;18.46;75.29;101027.88;5007244;28;20051;-64
2022/10/31 09:10:57;;;;;;;29.70;13.20;;;;;;;18.20;75.09;101021.97;4992961;28;20501;-64
2022/10/31 09:13:44;;;;;;;26.05;10.88;;;;;;;18.17;76.30;101019.06;5010323;28;20050;-65
2022/10/31 09:16:34;;;;;;;25.15;11.63;;;;;;;18.12;76.63;101008.19;4993425;28;20050;-64
2022/10/31 09:19:02;;;;;;;25.45;11.52;;;;;;;18.44;74.85;101015.47;5010479;28;20054;-63
2022/10/31 09:21:37;;;;;;;21.92;10.43;;;;;;;18.27;75.33;101004.63;4993130;28;20057;-64
2022/10/31 09:24:05;;;;;;;30.88;13.88;;;;;;;18.37;75.08;100992.94;4988593;28;20054;-62
2022/10/31 09:26:33;;;;;;;23.48;12.63;;;;;;;18.11;76.04;101009.38;4993313;28;20054;-64
2022/10/31 09:29:09;;;;;;;31.95;12.68;;;;;;;18.23;75.72;101000.94;4995632;28;20050;-64
2022/10/31 09:31:37;;;;;;;32.42;12.40;;;;;;;18.32;75.13;100999.59;4986577;28;20058;-70
2022/10/31 09:34:28;;;;;;;21.10;10.50;;;;;;;18.61;75.02;101001.97;4994058;28;20053;-64
2022/10/31 09:37:08;;;;;;;;;;;;;;;18.48;74.76;100994.06;4995354;28;20409;-68
2022/10/31 09:39:35;;;;;;;26.45;12.05;;;;;;;18.84;74.08;100985.41;4983477;28;19941;-64
2022/10/31 09:42:31;;;;;;;31.00;13.77;;;;;;;18.87;73.28;100973.50;4993267;28;20050;-63
2022/10/31 09:45:16;;;;;;;24.35;12.95;;;;;;;18.51;74.99;100971.84;4993659;28;20053;-63
2022/10/31 09:47:43;;;;;;;30.08;16.50;;;;;;;18.60;74.07;100968.88;4979318;28;20056;-64
2022/10/31 09:50:43;;;;;;;26.38;13.80;;;;;;;18.34;74.84;100963.78;4983138;28;20501;-64
2022/10/31 09:53:39;;;;;;;23.13;11.88;;;;;;;18.48;75.07;100960.59;5009005;28;20067;-64
2022/10/31 09:56:14;;;;;;;26.00;11.23;;;;;;;18.71;74.17;100961.53;5014473;28;20041;-64
2022/10/31 09:58:47;;;;;;;33.00;13.38;;;;;;;18.61;72.95;100967.69;4989631;28;20050;-64
2022/10/31 10:01:46;;;;;;;24.23;12.32;;;;;;;18.90;73.31;100964.38;4993077;28;20065;-65
2022/10/31 10:04:19;;;;;;;27.13;13.98;;;;;;;18.91;72.87;100957.66;5017807;28;20058;-64
2022/10/31 10:07:12;;;;;;;25.17;11.82;;;;;;;18.69;73.09;100945.16;5012506;28;20064;-64
2022/10/31 10:09:42;;;;;;;25.88;12.90;;;;;;;18.57;74.54;100948.06;5012294;28;20045;-64
2022/10/31 10:13:05;;;;;;;30.98;13.75;;;;;;;19.05;73.17;100932.84;4989311;28;20417;-64
2022/10/31 10:16:01;;;;;;;26.45;11.90;;;;;;;19.22;72.09;100912.06;4981834;28;20081;-65
2022/10/31 10:18:47;;;;;;;25.20;11.07;;;;;;;19.24;71.68;100912.50;4964153;28;20425;-65
2022/10/31 10:21:37;;;;;;;27.65;11.77;;;;;;;19.10;70.12;100899.06;5011793;28;20050;-64
2022/10/31 10:24:23;;;;;;;22.98;10.73;;;;;;;19.01;71.99;100902.06;5014071;28;20050;-64
2022/10/31 10:27:03;;;;;;;26.58;12.70;;;;;;;18.73;71.06;100898.63;5007431;28;20061;-65
2022/10/31 10:29:47;;;;;;;21.10;10.77;;;;;;;18.59;72.96;100891.91;5011758;28;20066;-64
2022/10/31 10:32:20;;;;;;;33.63;11.82;;;;;;;18.55;73.71;100889.03;4994812;28;20061;-63
2022/10/31 10:35:13;;;;;;;30.98;15.35;;;;;;;18.94;71.51;100895.50;4977171;28;20508;-64
2022/10/31 10:37:43;;;;;;;20.38;11.07;;;;;;;18.81;71.41;100883.66;5004049;28;20068;-64
2022/10/31 10:40:13;;;;;;;22.67;10.45;;;;;;;18.67;71.85;100879.75;5010726;28;20056;-64
2022/10/31 10:48:38;;;;;;;19.80;9.15;;;;;;;19.28;70.41;100866.72;5018742;28;20068;-65
2022/10/31 10:51:15;;;;;;;22.63;9.45;;;;;;;19.71;69.25;100852.44;5015059;28;20049;-64
2022/10/31 10:54:15;;;;;;;23.52;9.80;;;;;;;19.59;68.50;100826.63;4999467;28;20057;-66
2022/10/31 10:56:45;;;;;;;26.88;10.20;;;;;;;19.89;68.14;100814.41;5010479;28;20045;-66
2022/10/31 10:59:16;;;;;;;24.65;10.07;;;;;;;19.95;67.91;100803.72;5014046;28;20049;-65
2022/10/31 11:01:44;;;;;;;23.60;10.98;;;;;;;20.01;66.85;100810.63;5017104;28;20049;-64
2022/10/31 11:04:25;;;;;;;21.20;10.48;;;;;;;20.08;67.50;100802.34;5026040;28;20381;-65
2022/10/31 11:07:18;;;;;;;22.35;9.48;;;;;;;20.11;66.56;100802.41;5015321;28;20041;-64
2022/10/31 11:09:46;;;;;;;19.42;9.10;;;;;;;19.77;66.40;100797.81;5007806;28;20432;-65
2022/10/31 11:12:24;;;;;;;24.02;9.50;;;;;;;19.74;67.00;100784.59;5008251;28;20505;-64
2022/10/31 11:14:59;;;;;;;28.05;10.00;;;;;;;19.47;67.91;100782.94;4994290;28;20049;-65
2022/10/31 11:17:29;;;;;;;25.08;9.05;;;;;;;19.53;67.17;100775.84;4992686;28;20054;-65
2022/10/31 11:20:20;;;;;;;18.73;9.48;;;;;;;19.65;67.82;100780.44;5012627;28;20057;-65
2022/10/31 11:22:48;;;;;;;27.58;10.48;;;;;;;19.85;66.66;100787.56;5008008;28;20397;-64
2022/10/31 11:25:19;;;;;;;22.10;9.93;;;;;;;19.72;67.03;100784.16;5009635;28;20042;-64
2022/10/31 11:27:46;;;;;;;24.02;9.25;;;;;;;19.73;66.82;100787.78;5013935;28;20045;-65
2022/10/31 11:30:14;;;;;;;19.83;8.65;;;;;;;19.53;65.83;100786.19;4990544;28;20504;-65
2022/10/31 11:32:48;;;;;;;20.23;7.97;;;;;;;19.53;67.33;100775.84;4995084;28;20449;-66
2022/10/31 11:35:18;;;;;;;25.65;8.35;;;;;;;19.45;66.80;100771.31;4996071;28;20053;-64
2022/10/31 11:37:46;;;;;;;;;;;;;;;19.12;67.14;100756.28;5021081;28;20045;-65
2022/10/31 11:40:21;;;;;;;26.63;8.70;;;;;;;19.33;67.25;100759.50;4994917;28;19944;-68
2022/10/31 11:42:50;;;;;;;21.65;9.43;;;;;;;19.45;67.34;100756.53;4995432;28;20054;-65
2022/10/31 11:45:23;;;;;;;22.60;8.50;;;;;;;19.48;67.78;100758.56;5015509;28;20049;-67
2022/10/31 11:47:53;;;;;;;17.58;7.97;;;;;;;19.75;67.17;100749.06;5016231;28;20042;-64
2022/10/31 11:50:39;;;;;;;26.65;8.82;;;;;;;19.65;65.76;100736.53;5014164;28;20061;-66
2022/10/31 11:53:16;;;;;;;20.75;8.40;;;;;;;19.49;67.42;100735.06;4999769;28;20058;-65
2022/10/31 11:55:45;;;;;;;23.23;9.10;;;;;;;19.66;66.29;100735.34;5016049;28;20543;-65
2022/10/31 11:58:24;;;;;;;21.15;7.53;;;;;;;19.71;66.09;100726.66;4995585;28;20056;-66